Terminal Aerodrome Forecast
Issued by NWS

Home | Current Version | Previous Version | Graphics & Text | Print | Product List | Glossary Off
Versions: 1 2 3 4 5 6 7 8 9 10 11 12 13 14 15 16 17 18 19 20

000
FTUS43 KDDC 211912 AAA
TAFGCK
TAF AMD
KGCK 211912Z 2119/2218 03013KT P6SM BKN007 OVC012
     FM212100 02005KT P6SM OVC020
     FM220600 36006KT P6SM BKN008
     FM221500 01010KT P6SM SCT015=

USA.gov is the U.S. government's official web portal to all federal, state and local government web resources and services.